| time (UTC) | temp F | wind direction | speed knots | gust knots | rain 1hr in | rain 24hr in | rain mn in | humidity % | barometer mb |
| 20260508094533 | 34 | 0.0 | 0.0 | 0.00 | 0.00 | 0.00 | 99 | 1009.9 | |
| 20260508093529 | 34 | 0.0 | 0.0 | 0.00 | 0.00 | 0.00 | 99 | 1009.7 | |
| 20260508092525 | 34 | 0.0 | 0.0 | 0.00 | 0.00 | 0.00 | 99 | 1009.7 | |
| 20260508091521 | 34 | 0.0 | 0.0 | 0.00 | 0.00 | 0.00 | 99 | 1009.7 | |
| 20260508090517 | 34 | 0.0 | 0.0 | 0.00 | 0.00 | 0.00 | 99 | 1009.7 | |
| 20260508085533 | 34 | 0.0 | 0.0 | 0.00 | 0.00 | 0.00 | 99 | 1009.6 | |
| 20260508084529 | 34 | 0.0 | 0.0 | 0.00 | 0.00 | 0.00 | 99 | 1009.8 | |
| 20260508083525 | 33 | 0.0 | 0.0 | 0.00 | 0.00 | 0.00 | 99 | 1009.6 | |
| 20260508082521 | 33 | 0.0 | 0.0 | 0.00 | 0.00 | 0.00 | 99 | 1009.6 | |
| 20260508081518 | 33 | 0.0 | 0.0 | 0.00 | 0.00 | 0.00 | 99 | 1009.5 | |
| 20260508080535 | 33 | 0.0 | 0.0 | 0.00 | 0.00 | 0.00 | 99 | 1009.5 | |
| 20260508075530 | 32 | 0.0 | 0.0 | 0.00 | 0.00 | 0.00 | 99 | 1009.3 | |
| 20260508074546 | 32 | 0.0 | 0.0 | 0.00 | 0.00 | 0.00 | 99 | 1009.4 | |
| 20260508073523 | 32 | 0.0 | 0.0 | 0.00 | 0.00 | 0.00 | 99 | 1009.4 | |
| 20260508072519 | 32 | 0.0 | 0.0 | 0.00 | 0.00 | 0.00 | 99 | 1009.3 | |
| 20260508071535 | 32 | 0.0 | 0.0 | 0.00 | 0.00 | 0.00 | 99 | 1009.3 | |
| 20260508070531 | 31 | 0.0 | 0.0 | 0.00 | 0.00 | 0.00 | 99 | 1009.3 | |
| 20260508065527 | 31 | 0.0 | 0.0 | 0.00 | 0.00 | 0.00 | 99 | 1009.5 | |
| 20260508064522 | 31 | 0.0 | 0.0 | 0.00 | 0.00 | 0.00 | 99 | 1009.6 | |
| 20260508063518 | 31 | 0.0 | 0.0 | 0.00 | 0.00 | 0.00 | 99 | 1009.3 | |
| 20260508062555 | 31 | 0.0 | 0.0 | 0.00 | 0.00 | 0.00 | 99 | 1009.4 | |
| 20260508061531 | 31 | 0.0 | 0.0 | 0.00 | 0.00 | 0.00 | 99 | 1009.5 | |
| 20260508060527 | 32 | 0.0 | 0.0 | 0.00 | 0.00 | 0.00 | 99 | 1009.4 | |
| 20260508055524 | 32 | 0.0 | 0.0 | 0.00 | 0.00 | 0.00 | 99 | 1009.5 | |
| 20260508054520 | 32 | 0.0 | 0.0 | 0.00 | 0.00 | 0.00 | 98 | 1009.6 | |
| 20260508053516 | 32 | 206 | 0.9 | 1.7 | 0.00 | 0.00 | 0.00 | 98 | 1009.6 |
| 20260508052532 | 32 | 0.0 | 0.0 | 0.00 | 0.00 | 0.00 | 98 | 1009.7 | |
| 20260508051609 | 32 | 0.0 | 0.0 | 0.00 | 0.00 | 0.00 | 97 | 1009.6 | |
| 20260508050524 | 32 | 0.0 | 0.0 | 0.00 | 0.00 | 0.00 | 97 | 1009.5 | |
| 20260508045528 | 33 | 0.0 | 0.0 | 0.00 | 0.00 | 0.00 | 97 | 1009.4 | |
| 20260508044524 | 33 | 0.0 | 0.0 | 0.00 | 0.00 | 0.00 | 96 | 1009.6 | |
| 20260508043520 | 33 | 273 | 0.9 | 1.7 | 0.00 | 0.00 | 0.00 | 96 | 1009.5 |
| 20260508042517 | 34 | 208 | 0.9 | 1.7 | 0.00 | 0.00 | 0.00 | 96 | 1009.6 |
| 20260508041533 | 34 | 222 | 1.7 | 2.6 | 0.00 | 0.00 | 0.00 | 96 | 1009.8 |
| 20260508040529 | 34 | 224 | 1.7 | 1.7 | 0.00 | 0.00 | 0.00 | 95 | 1009.7 |
| 20260508035524 | 34 | 227 | 1.7 | 2.6 | 0.00 | 0.00 | 0.00 | 95 | 1009.6 |
| 20260508034521 | 35 | 219 | 2.6 | 2.6 | 0.00 | 0.00 | 0.00 | 94 | 1009.6 |
| 20260508033517 | 35 | 232 | 1.7 | 3.5 | 0.00 | 0.00 | 0.00 | 93 | 1009.7 |
| 20260508032532 | 36 | 217 | 2.6 | 2.6 | 0.00 | 0.00 | 0.00 | 93 | 1009.7 |
| 20260508031528 | 36 | 200 | 2.6 | 2.6 | 0.00 | 0.00 | 0.00 | 92 | 1009.6 |
| 20260508030524 | 36 | 210 | 2.6 | 3.5 | 0.00 | 0.00 | 0.00 | 91 | 1009.5 |
| 20260508025520 | 37 | 214 | 1.7 | 2.6 | 0.00 | 0.00 | 0.00 | 91 | 1009.6 |
| 20260508024516 | 37 | 225 | 2.6 | 3.5 | 0.00 | 0.00 | 0.00 | 90 | 1009.6 |
| 20260508023532 | 38 | 228 | 2.6 | 3.5 | 0.00 | 0.00 | 0.00 | 88 | 1009.6 |
| 20260508022528 | 38 | 214 | 2.6 | 3.5 | 0.00 | 0.00 | 0.00 | 88 | 1009.8 |
| 20260508021542 | 39 | 221 | 2.6 | 3.5 | 0.00 | 0.00 | 0.00 | 86 | 1009.5 |
| 20260508020518 | 39 | 232 | 2.6 | 3.5 | 0.00 | 0.00 | 0.00 | 84 | 1009.5 |
| 20260508015534 | 40 | 229 | 1.7 | 2.6 | 0.00 | 0.00 | 0.00 | 84 | 1009.4 |
| 20260508014530 | 41 | 229 | 1.7 | 2.6 | 0.00 | 0.01 | 0.00 | 81 | 1009.3 |
| 20260508013526 | 41 | 218 | 2.6 | 3.5 | 0.00 | 0.01 | 0.00 | 79 | 1009.2 |
| 20260508012542 | 42 | 219 | 1.7 | 2.6 | 0.00 | 0.02 | 0.00 | 78 | 1009.0 |
| 20260508011518 | 43 | 222 | 1.7 | 2.6 | 0.00 | 0.02 | 0.00 | 73 | 1009.1 |
| 20260508010535 | 44 | 262 | 1.7 | 2.6 | 0.00 | 0.03 | 0.00 | 71 | 1009.0 |
| 20260508005531 | 44 | 265 | 0.9 | 1.7 | 0.00 | 0.03 | 0.00 | 66 | 1008.9 |
| 20260508004527 | 44 | 268 | 0.0 | 1.7 | 0.00 | 0.04 | 0.00 | 65 | 1008.9 |
| 20260508003523 | 47 | 350 | 0.9 | 2.6 | 0.00 | 0.05 | 0.00 | 60 | 1008.5 |
| 20260508002519 | 48 | 328 | 0.9 | 0.9 | 0.00 | 0.05 | 0.00 | 57 | 1008.5 |
| 20260508001535 | 50 | 301 | 0.9 | 1.7 | 0.00 | 0.05 | 0.00 | 53 | 1008.3 |
| 20260508000611 | 51 | 337 | 2.6 | 6.1 | 0.00 | 0.05 | 0.00 | 48 | 1008.2 |
| 20260507235527 | 51 | 319 | 1.7 | 3.5 | 0.00 | 0.06 | 0.00 | 48 | 1008.1 |
| 20260507234522 | 52 | 16 | 1.7 | 3.5 | 0.00 | 0.08 | 0.00 | 47 | 1008.0 |
| 20260507233539 | 52 | 329 | 1.7 | 3.5 | 0.00 | 0.10 | 0.00 | 47 | 1007.9 |
| 20260507232535 | 53 | 347 | 1.7 | 6.1 | 0.00 | 0.11 | 0.00 | 45 | 1007.8 |
| 20260507231532 | 55 | 342 | 2.6 | 6.1 | 0.00 | 0.11 | 0.00 | 44 | 1007.7 |
| 20260507230529 | 55 | 322 | 2.6 | 7.8 | 0.00 | 0.12 | 0.00 | 44 | 1007.7 |
| 20260507225525 | 54 | 279 | 5.2 | 9.6 | 0.00 | 0.12 | 0.00 | 43 | 1007.6 |
| 20260507224521 | 54 | 307 | 3.5 | 6.1 | 0.00 | 0.12 | 0.00 | 42 | 1007.7 |
| 20260507223537 | 55 | 284 | 2.6 | 6.1 | 0.00 | 0.13 | 0.00 | 43 | 1007.7 |
| 20260507222533 | 54 | 297 | 3.5 | 6.1 | 0.00 | 0.14 | 0.00 | 43 | 1007.7 |
| 20260507221529 | 55 | 263 | 2.6 | 6.1 | 0.00 | 0.14 | 0.00 | 43 | 1007.6 |
| 20260507220525 | 55 | 294 | 1.7 | 3.5 | 0.00 | 0.15 | 0.00 | 43 | 1007.7 |
| 20260507215521 | 55 | 323 | 3.5 | 8.7 | 0.00 | 0.15 | 0.00 | 42 | 1007.5 |
| 20260507214517 | 56 | 345 | 3.5 | 8.7 | 0.00 | 0.15 | 0.00 | 42 | 1007.6 |
| 20260507213533 | 57 | 305 | 2.6 | 6.1 | 0.00 | 0.15 | 0.00 | 41 | 1007.4 |
| 20260507212529 | 56 | 307 | 4.3 | 7.8 | 0.00 | 0.16 | 0.00 | 42 | 1007.4 |
| 20260507211525 | 56 | 273 | 5.2 | 13.9 | 0.00 | 0.17 | 0.00 | 43 | 1007.4 |
| 20260507210521 | 56 | 301 | 4.3 | 11.3 | 0.00 | 0.17 | 0.00 | 42 | 1007.4 |
| 20260507205517 | 55 | 259 | 8.7 | 12.2 | 0.00 | 0.18 | 0.00 | 42 | 1007.3 |
| 20260507204533 | 55 | 251 | 7.0 | 13.0 | 0.00 | 0.18 | 0.00 | 42 | 1007.4 |
| 20260507203529 | 55 | 279 | 8.7 | 13.9 | 0.00 | 0.18 | 0.00 | 43 | 1007.2 |
| 20260507202605 | 56 | 276 | 5.2 | 9.6 | 0.00 | 0.18 | 0.00 | 43 | 1007.3 |
| 20260507201521 | 57 | 266 | 6.1 | 13.9 | 0.00 | 0.18 | 0.00 | 43 | 1007.4 |
| 20260507200517 | 55 | 289 | 7.0 | 15.6 | 0.00 | 0.19 | 0.00 | 45 | 1007.4 |
| 20260507195533 | 55 | 290 | 7.0 | 11.3 | 0.00 | 0.19 | 0.00 | 44 | 1007.7 |
| 20260507194550 | 55 | 290 | 4.3 | 8.7 | 0.00 | 0.20 | 0.00 | 45 | 1007.8 |
| 20260507193525 | 55 | 276 | 5.2 | 13.0 | 0.00 | 0.23 | 0.00 | 45 | 1007.7 |
| 20260507192521 | 56 | 277 | 8.7 | 15.6 | 0.00 | 0.24 | 0.00 | 44 | 1007.8 |
| 20260507191518 | 55 | 248 | 5.2 | 7.8 | 0.00 | 0.26 | 0.00 | 45 | 1008.0 |
| 20260507190534 | 55 | 268 | 5.2 | 8.7 | 0.00 | 0.29 | 0.00 | 46 | 1008.1 |
| 20260507185531 | 55 | 266 | 7.8 | 13.9 | 0.00 | 0.32 | 0.00 | 46 | 1008.2 |
| 20260507184526 | 54 | 290 | 7.8 | 13.0 | 0.00 | 0.36 | 0.00 | 45 | 1008.3 |
| 20260507183523 | 54 | 304 | 7.0 | 13.9 | 0.00 | 0.39 | 0.00 | 45 | 1008.5 |
| 20260507182519 | 56 | 307 | 7.8 | 14.8 | 0.00 | 0.41 | 0.00 | 44 | 1008.5 |
| 20260507181535 | 55 | 275 | 7.0 | 12.2 | 0.00 | 0.44 | 0.00 | 45 | 1008.5 |
| 20260507180530 | 55 | 311 | 5.2 | 12.2 | 0.00 | 0.49 | 0.00 | 46 | 1008.5 |
| 20260507175526 | 55 | 265 | 7.0 | 13.9 | 0.00 | 0.53 | 0.00 | 47 | 1008.5 |
| 20260507174542 | 54 | 299 | 6.1 | 12.2 | 0.00 | 0.56 | 0.00 | 46 | 1008.6 |
| 20260507173518 | 56 | 284 | 5.2 | 9.6 | 0.00 | 0.63 | 0.00 | 46 | 1008.5 |
| 20260507172533 | 54 | 273 | 7.0 | 11.3 | 0.00 | 0.69 | 0.00 | 47 | 1008.6 |
| 20260507171549 | 55 | 275 | 6.1 | 9.6 | 0.00 | 0.71 | 0.00 | 46 | 1008.6 |
| 20260507170525 | 54 | 282 | 7.8 | 16.5 | 0.00 | 0.74 | 0.00 | 46 | 1008.7 |
| 20260507165520 | 55 | 284 | 8.7 | 18.2 | 0.00 | 0.76 | 0.00 | 45 | 1008.9 |
| 20260507164517 | 54 | 332 | 5.2 | 11.3 | 0.00 | 0.78 | 0.00 | 46 | 1008.9 |
| 20260507163533 | 54 | 276 | 7.0 | 13.0 | 0.00 | 0.81 | 0.00 | 45 | 1009.2 |
| 20260507162529 | 54 | 287 | 7.0 | 13.0 | 0.00 | 0.84 | 0.00 | 47 | 1009.6 |
| 20260507161525 | 53 | 287 | 7.0 | 15.6 | 0.00 | 0.86 | 0.00 | 46 | 1009.7 |
| 20260507160522 | 52 | 293 | 6.1 | 12.2 | 0.00 | 0.90 | 0.00 | 49 | 1009.6 |
| 20260507155518 | 51 | 335 | 4.3 | 11.3 | 0.00 | 0.92 | 0.00 | 50 | 1009.8 |
| 20260507154534 | 51 | 336 | 4.3 | 7.8 | 0.00 | 0.95 | 0.00 | 52 | 1009.9 |
| 20260507153529 | 52 | 287 | 4.3 | 13.0 | 0.00 | 1.01 | 0.00 | 50 | 1010.1 |
| 20260507152526 | 52 | 307 | 1.7 | 6.1 | 0.00 | 1.05 | 0.00 | 56 | 1010.2 |
| 20260507151522 | 51 | 242 | 2.6 | 5.2 | 0.00 | 1.08 | 0.00 | 52 | 1010.3 |
| 20260507150519 | 50 | 270 | 5.2 | 11.3 | 0.00 | 1.12 | 0.00 | 55 | 1010.2 |
| 20260507145535 | 51 | 279 | 3.5 | 7.8 | 0.00 | 1.15 | 0.00 | 55 | 1010.3 |
| 20260507144551 | 50 | 13 | 4.3 | 13.0 | 0.00 | 1.18 | 0.00 | 56 | 1010.4 |
| 20260507143527 | 50 | 330 | 4.3 | 8.7 | 0.00 | 1.23 | 0.00 | 55 | 1010.2 |
| 20260507142544 | 49 | 271 | 5.2 | 11.3 | 0.00 | 1.26 | 0.00 | 56 | 1010.4 |
| 20260507141520 | 49 | 332 | 7.8 | 13.9 | 0.00 | 1.30 | 0.00 | 59 | 1010.5 |
| 20260507140536 | 49 | 303 | 4.3 | 7.8 | 0.00 | 1.32 | 0.00 | 63 | 1010.6 |
| 20260507135532 | 49 | 299 | 5.2 | 8.7 | 0.00 | 1.34 | 0.00 | 65 | 1010.5 |
| 20260507134528 | 48 | 280 | 5.2 | 9.6 | 0.00 | 1.36 | 0.00 | 67 | 1010.4 |
| 20260507133523 | 49 | 209 | 1.7 | 7.0 | 0.00 | 1.38 | 0.00 | 69 | 1010.4 |
| 20260507132539 | 48 | 31 | 2.6 | 5.2 | 0.00 | 1.40 | 0.00 | 72 | 1010.6 |
| 20260507131516 | 47 | 215 | 3.5 | 7.8 | 0.00 | 1.42 | 0.00 | 72 | 1010.5 |
| 20260507130532 | 47 | 259 | 3.5 | 6.1 | 0.00 | 1.44 | 0.00 | 74 | 1010.6 |
| 20260507125528 | 47 | 259 | 5.2 | 8.7 | 0.00 | 1.46 | 0.00 | 77 | 1010.4 |
| 20260507124544 | 47 | 305 | 3.5 | 7.0 | 0.00 | 1.48 | 0.00 | 75 | 1010.4 |
| 20260507123540 | 46 | 279 | 6.1 | 8.7 | 0.00 | 1.49 | 0.00 | 73 | 1010.5 |
| 20260507122516 | 47 | 257 | 4.3 | 7.0 | 0.00 | 1.51 | 0.00 | 76 | 1010.4 |
| 20260507121531 | 46 | 275 | 6.1 | 8.7 | 0.00 | 1.52 | 0.00 | 79 | 1010.3 |
| 20260507120547 | 46 | 275 | 6.1 | 8.7 | 0.00 | 1.52 | 0.00 | 79 | 1010.3 |
| 20260507115524 | 46 | 283 | 7.0 | 12.2 | 0.00 | 1.52 | 0.00 | 80 | 1009.9 |
| 20260507114520 | 45 | 275 | 6.1 | 9.6 | 0.00 | 1.52 | 0.00 | 87 | 1009.9 |
| 20260507113536 | 44 | 239 | 2.6 | 6.1 | 0.00 | 1.52 | 0.00 | 99 | 1009.7 |
| 20260507112531 | 43 | 253 | 1.7 | 3.5 | 0.00 | 1.52 | 0.00 | 99 | 1009.7 |
| 20260507111527 | 43 | 250 | 2.6 | 3.5 | 0.00 | 1.52 | 0.00 | 99 | 1009.6 |
| 20260507110523 | 43 | 239 | 0.9 | 5.2 | 0.00 | 1.52 | 0.00 | 99 | 1009.6 |
| 20260507105520 | 43 | 258 | 0.0 | 0.9 | 0.00 | 1.53 | 0.00 | 99 | 1009.5 |
| 20260507104515 | 42 | 237 | 0.9 | 3.5 | 0.00 | 1.53 | 0.00 | 99 | 1009.3 |
| 20260507103532 | 43 | 256 | 3.5 | 7.8 | 0.00 | 1.53 | 0.00 | 99 | 1009.2 |
| 20260507102527 | 44 | 0.0 | 0.0 | 0.00 | 1.53 | 0.00 | 99 | 1009.2 | |
| 20260507101523 | 44 | 0.0 | 0.0 | 0.00 | 1.53 | 0.00 | 99 | 1009.1 | |
| 20260507100519 | 44 | 0.0 | 0.0 | 0.00 | 1.53 | 0.00 | 99 | 1009.0 | |
| 20260507095535 | 44 | 0.0 | 0.0 | 0.00 | 1.53 | 0.00 | 99 | 1008.9 |